Dades meteomassalio
Diari Summary for Gener 26, 2017 Units:  English    Metric   Both
« Previous Day
Next Day »
Diari Semanal Mensual Anual Personalitzat
  Maxima: Minima: Mijana:
Temperatura: TemperatureC °F -4.1 °F 2.9 °F
Rosada: DewpointC °F -5.2 °F -0.4 °F
Humitat: Humidity % 63 % 80 %
Velocitat del vent: WindSpeedKMH mph 0.0 mph 1 mph
Racha vent: WindSpeedGustKMH mph - -
Vent:- - ESE
Pressio: PressurehPa in 1016.5 in -
Pluja: 0.0 in    
Historical Graphs
 
 
Tabular Data for Gener 26, 2017
Time Temperature Dew Point Pressure Wind Wind Speed Wind Gust Humidity Rainfall Rate (Hourly) solar Conditions
TemperatureC °F DewpointC °F PressurehPa in Calm     Humidity % HourlyPrecipMM in SolarRadiationWatts/m^2 W/m2 Conditions
00:02 -1.6 °F -3.2 °F 1021.2 in Calm     89 % 0.0 in 0.0 W/m2 CLR
00:07 -1.6 °F -3.2 °F 1021.2 in Calm     89 % 0.0 in 0.0 W/m2 CLR
00:12 -1.7 °F -3.3 °F 1021.2 in Calm     89 % 0.0 in 0.0 W/m2 CLR
00:17 -1.7 °F -3.3 °F 1021.2 in Calm     89 % 0.0 in 0.0 W/m2 CLR
00:22 -1.8 °F -3.3 °F 1021.6 in Calm     89 % 0.0 in 0.0 W/m2 CLR
00:27 -1.8 °F -3.4 °F 1021.6 in Calm     89 % 0.0 in 0.0 W/m2 CLR
00:32 -1.8 °F -3.3 °F 1021.6 in Calm     89 % 0.0 in 0.0 W/m2 CLR
00:37 -1.7 °F -3.3 °F 1021.2 in Calm     89 % 0.0 in 0.0 W/m2 CLR
00:42 -1.7 °F -3.3 °F 1021.2 in Calm     89 % 0.0 in 0.0 W/m2 CLR
00:47 -1.8 °F -3.3 °F 1021.2 in Calm     89 % 0.0 in 0.0 W/m2 CLR
00:48 -1.8 °F -3.3 °F 1021.2 in Calm     89 % 0.0 in 0.0 W/m2 CLR
00:53 -1.8 °F -3.4 °F 1021.2 in Calm     89 % 0.0 in 0.0 W/m2 CLR
00:58 -2.0 °F -3.6 °F 1021.2 in Calm     89 % 0.0 in 0.0 W/m2 CLR
01:03 -2.1 °F -3.6 °F 1021.2 in Calm     89 % 0.0 in 0.0 W/m2 CLR
01:08 -2.1 °F -3.7 °F 1021.2 in Calm     89 % 0.0 in 0.0 W/m2 CLR
01:13 -2.2 °F -3.7 °F 1021.2 in Calm     89 % 0.0 in 0.0 W/m2 CLR
01:18 -2.2 °F -3.7 °F 1021.2 in Calm     90 % 0.0 in 0.0 W/m2 CLR
01:23 -2.2 °F -3.7 °F 1021.2 in Calm     90 % 0.0 in 0.0 W/m2 CLR
01:28 -2.2 °F -3.7 °F 1021.2 in Calm     90 % 0.0 in 0.0 W/m2 CLR
01:33 -2.2 °F -3.7 °F 1021.2 in Calm     90 % 0.0 in 0.0 W/m2 CLR
01:38 -2.2 °F -3.7 °F 1020.9 in Calm     90 % 0.0 in 0.0 W/m2 CLR
01:43 -2.2 °F -3.7 °F 1020.9 in Calm     90 % 0.0 in 0.0 W/m2 CLR
01:48 -2.2 °F -3.7 °F 1020.9 in Calm     90 % 0.0 in 0.0 W/m2 CLR
01:53 -2.3 °F -3.7 °F 1020.9 in Calm     90 % 0.0 in 0.0 W/m2 CLR
01:58 -2.3 °F -3.8 °F 1020.9 in Calm     90 % 0.0 in 0.0 W/m2 CLR
02:03 -2.4 °F -3.8 °F 1020.9 in Calm     90 % 0.0 in 0.0 W/m2 CLR
02:08 -2.4 °F -3.8 °F 1020.9 in Calm     90 % 0.0 in 0.0 W/m2 CLR
02:13 -2.4 °F -3.8 °F 1020.9 in Calm     90 % 0.0 in 0.0 W/m2 CLR
02:18 -2.4 °F -3.7 °F 1020.9 in Calm     91 % 0.0 in 0.0 W/m2 CLR
02:23 -2.4 °F -3.7 °F 1020.9 in Calm     91 % 0.0 in 0.0 W/m2 CLR
02:28 -2.4 °F -3.8 °F 1020.9 in Calm     90 % 0.0 in 0.0 W/m2 CLR
02:33 -2.4 °F -3.8 °F 1020.9 in Calm     90 % 0.0 in 0.0 W/m2 CLR
02:38 -2.5 °F -3.9 °F 1020.5 in Calm     90 % 0.0 in 0.0 W/m2 CLR
02:43 -2.6 °F -3.9 °F 1020.9 in Calm     90 % 0.0 in 0.0 W/m2 CLR
02:48 -2.6 °F -3.8 °F 1020.9 in Calm     91 % 0.0 in 0.0 W/m2 CLR
02:53 -2.6 °F -3.9 °F 1020.9 in Calm     90 % 0.0 in 0.0 W/m2 CLR
02:58 -2.5 °F -3.9 °F 1020.9 in Calm     90 % 0.0 in 0.0 W/m2 CLR
03:03 -2.5 °F -3.9 °F 1020.9 in Calm     90 % 0.0 in 0.0 W/m2 CLR
03:08 -2.5 °F -3.9 °F 1020.9 in Calm     90 % 0.0 in 0.0 W/m2 CLR
03:13 -2.5 °F -3.9 °F 1020.9 in Calm     90 % 0.0 in 0.0 W/m2 CLR
03:18 -2.6 °F -3.9 °F 1020.9 in Calm     90 % 0.0 in 0.0 W/m2 CLR
03:23 -2.6 °F -4.0 °F 1020.5 in Calm     90 % 0.0 in 0.0 W/m2 CLR
03:28 -2.7 °F -4.1 °F 1020.5 in Calm     90 % 0.0 in 0.0 W/m2 CLR
03:33 -2.7 °F -4.1 °F 1020.5 in Calm     90 % 0.0 in 0.0 W/m2 CLR
03:38 -2.7 °F -4.0 °F 1020.5 in Calm     91 % 0.0 in 0.0 W/m2 CLR
03:43 -2.7 °F -4.0 °F 1020.9 in Calm     91 % 0.0 in 0.0 W/m2 CLR
03:48 -2.7 °F -3.9 °F 1020.5 in Calm     91 % 0.0 in 0.0 W/m2 CLR
03:53 -2.7 °F -3.9 °F 1020.5 in Calm     91 % 0.0 in 0.0 W/m2 CLR
03:59 -2.7 °F -3.9 °F 1020.5 in Calm     91 % 0.0 in 0.0 W/m2 CLR
04:04 -2.7 °F -4.0 °F 1020.5 in Calm     91 % 0.0 in 0.0 W/m2 CLR
04:09 -2.8 °F -4.2 °F 1020.5 in Calm     90 % 0.0 in 0.0 W/m2 CLR
04:14 -2.7 °F -4.0 °F 1020.5 in Calm     91 % 0.0 in 0.0 W/m2 CLR
04:19 -2.7 °F -4.0 °F 1020.5 in Calm     91 % 0.0 in 0.0 W/m2 CLR
04:24 -2.7 °F -4.0 °F 1020.5 in Calm     91 % 0.0 in 0.0 W/m2 CLR
04:29 -2.7 °F -4.0 °F 1020.2 in Calm     91 % 0.0 in 0.0 W/m2 CLR
04:34 -2.8 °F -4.1 °F 1020.5 in Calm     91 % 0.0 in 0.0 W/m2 CLR
04:39 -2.8 °F -4.1 °F 1020.5 in Calm     91 % 0.0 in 0.0 W/m2 CLR
04:44 -2.8 °F -4.1 °F 1020.5 in Calm     91 % 0.0 in 0.0 W/m2 CLR
04:49 -2.8 °F -4.1 °F 1020.2 in Calm     91 % 0.0 in 0.0 W/m2 CLR
04:54 -2.8 °F -4.1 °F 1020.5 in Calm     91 % 0.0 in 0.0 W/m2 CLR
04:59 -2.8 °F -4.1 °F 1020.5 in Calm     91 % 0.0 in 0.0 W/m2 CLR
05:04 -2.8 °F -4.1 °F 1020.5 in Calm     91 % 0.0 in 0.0 W/m2 CLR
05:09 -2.8 °F -4.1 °F 1020.5 in Calm     91 % 0.0 in 0.0 W/m2 CLR
05:14 -2.8 °F -4.1 °F 1020.5 in Calm     91 % 0.0 in 0.0 W/m2 CLR
05:19 -2.8 °F -4.1 °F 1020.5 in Calm     91 % 0.0 in 0.0 W/m2 CLR
05:24 -2.9 °F -4.2 °F 1020.5 in Calm     91 % 0.0 in 0.0 W/m2 CLR
05:34 -3.0 °F -4.3 °F 1020.5 in Calm     91 % 0.0 in 0.0 W/m2 CLR
05:39 -3.0 °F -4.3 °F 1020.5 in Calm     91 % 0.0 in 0.0 W/m2 CLR
05:44 -3.1 °F -4.3 °F 1020.5 in Calm     91 % 0.0 in 0.0 W/m2 CLR
05:49 -3.2 °F -4.4 °F 1020.5 in Calm     91 % 0.0 in 0.0 W/m2 CLR
05:54 -3.1 °F -4.4 °F 1020.5 in Calm     91 % 0.0 in 0.0 W/m2 CLR
05:59 -3.1 °F -4.4 °F 1020.5 in Calm     91 % 0.0 in 0.0 W/m2 CLR
06:04 -3.2 °F -4.4 °F 1020.5 in Calm     91 % 0.0 in 0.0 W/m2 CLR
06:09 -3.1 °F -4.4 °F 1020.5 in Calm     91 % 0.0 in 0.0 W/m2 CLR
06:14 -3.1 °F -4.4 °F 1020.5 in Calm     91 % 0.0 in 0.0 W/m2 CLR
06:19 -3.1 °F -4.4 °F 1020.5 in Calm     91 % 0.0 in 0.0 W/m2 CLR
06:24 -3.2 °F -4.5 °F 1020.5 in Calm     91 % 0.0 in 0.0 W/m2 CLR
06:29 -3.3 °F -4.6 °F 1020.5 in Calm     91 % 0.0 in 0.0 W/m2 CLR
06:34 -3.4 °F -4.7 °F 1020.5 in Calm     91 % 0.0 in 0.0 W/m2 CLR
06:39 -3.4 °F -4.7 °F 1020.5 in Calm     91 % 0.0 in 0.0 W/m2 CLR
06:44 -3.4 °F -4.5 °F 1020.5 in Calm     92 % 0.0 in 0.0 W/m2 CLR
06:49 -3.4 °F -4.5 °F 1020.5 in Calm     92 % 0.0 in 0.0 W/m2 CLR
06:54 -3.4 °F -4.5 °F 1020.5 in Calm     92 % 0.0 in 0.0 W/m2 CLR
06:59 -3.4 °F -4.6 °F 1020.5 in Calm     92 % 0.0 in 0.0 W/m2 CLR
07:04 -3.5 °F -4.6 °F 1020.2 in Calm     92 % 0.0 in 0.0 W/m2 CLR
07:09 -3.6 °F -4.7 °F 1020.5 in Calm     92 % 0.0 in 0.0 W/m2 CLR
07:14 -3.6 °F -4.7 °F 1020.5 in Calm     92 % 0.0 in 0.0 W/m2 CLR
07:19 -3.6 °F -4.7 °F 1020.5 in Calm     92 % 0.0 in 0.0 W/m2 CLR
07:25 -3.7 °F -4.8 °F 1020.5 in Calm     92 % 0.0 in 0.0 W/m2 CLR
07:30 -3.8 °F -4.9 °F 1020.5 in Calm     92 % 0.0 in 0.0 W/m2 CLR
07:35 -3.8 °F -4.9 °F 1020.5 in Calm     92 % 0.0 in 0.0 W/m2 CLR
07:40 -3.9 °F -5.0 °F 1020.5 in Calm     92 % 0.0 in 0.0 W/m2 CLR
07:45 -3.9 °F -5.1 °F 1020.5 in Calm     92 % 0.0 in 0.0 W/m2 CLR
07:50 -3.9 °F -5.0 °F 1020.5 in Calm     92 % 0.0 in 0.0 W/m2 CLR
07:55 -3.9 °F -5.0 °F 1020.9 in Calm     92 % 0.0 in 0.0 W/m2 CLR
08:00 -3.9 °F -5.1 °F 1020.9 in Calm     92 % 0.0 in 0.0 W/m2 CLR
08:05 -3.9 °F -5.1 °F 1020.9 in Calm     92 % 0.0 in 0.0 W/m2 CLR
08:10 -4.0 °F -5.1 °F 1020.9 in Calm     92 % 0.0 in 0.0 W/m2 OVC
08:15 -4.0 °F -5.1 °F 1020.9 in Calm     92 % 0.0 in 0.0 W/m2 OVC
08:20 -4.1 °F -5.2 °F 1020.9 in Calm     92 % 0.0 in 5.0 W/m2 OVC
08:25 -4.0 °F -5.1 °F 1020.9 in Calm     92 % 0.0 in 9.0 W/m2 BKN
08:30 -3.9 °F -5.1 °F 1020.9 in Calm     92 % 0.0 in 9.0 W/m2 BKN
08:35 -3.8 °F -4.9 °F 1020.9 in Calm     92 % 0.0 in 16.0 W/m2 BKN
08:40 -3.8 °F -4.9 °F 1020.9 in Calm     92 % 0.0 in 19.0 W/m2 BKN
08:45 -3.7 °F -4.8 °F 1020.9 in Calm     92 % 0.0 in 21.0 W/m2 BKN
08:50 -3.6 °F -4.7 °F 1020.9 in Calm     92 % 0.0 in 26.0 W/m2 BKN
08:55 -3.4 °F -4.5 °F 1020.9 in Calm     92 % 0.0 in 32.0 W/m2 BKN
09:00 -3.2 °F -4.3 °F 1020.9 in Calm     92 % 0.0 in 37.0 W/m2 BKN
09:05 -3.1 °F -4.2 °F 1020.9 in Calm     92 % 0.0 in 51.0 W/m2 SCT
09:10 -2.9 °F -4.0 °F 1020.9 in Calm     92 % 0.0 in 69.0 W/m2 FEW
09:15 -2.7 °F -3.8 °F 1020.9 in Calm     92 % 0.0 in 81.0 W/m2 FEW
09:20 -2.6 °F -3.7 °F 1020.9 in Calm     92 % 0.0 in 97.0 W/m2 FEW
09:25 -2.4 °F -3.7 °F 1020.9 in Calm     91 % 0.0 in 105.0 W/m2 CLR
09:30 -2.1 °F -3.2 °F 1020.9 in Calm     92 % 0.0 in 120.0 W/m2 CLR
09:35 -1.8 °F -3.1 °F 1020.9 in Calm     91 % 0.0 in 158.0 W/m2 CLR
09:41 -1.6 °F -3.1 °F 1020.9 in Calm     90 % 0.0 in 151.0 W/m2 CLR
09:46 -1.4 °F -2.8 °F 1020.9 in Calm     90 % 0.0 in 148.0 W/m2 CLR
09:51 -1.1 °F -2.6 °F 1020.9 in Calm     90 % 0.0 in 114.0 W/m2 CLR
09:56 -0.7 °F -2.2 °F 1020.9 in Calm     90 % 0.0 in 137.0 W/m2 CLR
10:01 -0.5 °F -2.1 °F 1020.9 in Calm     89 % 0.0 in 232.0 W/m2 CLR
10:06 -0.3 °F -1.9 °F 1020.9 in Calm     89 % 0.0 in 246.0 W/m2 CLR
10:11 0.0 °F -1.8 °F 1020.9 in Calm     88 % 0.0 in 258.0 W/m2 CLR
10:16 0.4 °F -1.4 °F 1020.9 in Calm     88 % 0.0 in 271.0 W/m2 CLR
10:21 0.7 °F -1.4 °F 1020.5 in Calm     86 % 0.0 in 281.0 W/m2 CLR
10:26 0.9 °F -1.2 °F 1020.5 in Calm     86 % 0.0 in 290.0 W/m2 CLR
10:31 1.2 °F -1.1 °F 1020.5 in Calm     85 % 0.0 in 301.0 W/m2 CLR
10:36 1.3 °F -1.1 °F 1020.5 in Calm     84 % 0.0 in 309.0 W/m2 CLR
10:41 1.4 °F -1.0 °F 1020.5 in Calm     84 % 0.0 in 320.0 W/m2 CLR
10:46 1.6 °F -0.8 °F 1020.5 in Calm     84 % 0.0 in 330.0 W/m2 CLR
10:51 1.7 °F -0.8 °F 1020.5 in Calm     83 % 0.0 in 339.0 W/m2 CLR
10:56 1.9 °F -0.8 °F 1020.5 in Calm     82 % 0.0 in 348.0 W/m2 CLR
11:01 2.6 °F -0.2 °F 1020.5 in Calm     82 % 0.0 in 359.0 W/m2 CLR
11:06 2.8 °F -0.3 °F 1020.5 in Calm     80 % 0.0 in 364.0 W/m2 CLR
11:11 3.3 °F 0.1 °F 1020.5 in Calm     79 % 0.0 in 373.0 W/m2 CLR
11:16 3.7 °F 0.0 °F 1020.5 in Calm     77 % 0.0 in 383.0 W/m2 CLR
11:21 3.9 °F 0.1 °F 1020.5 in Calm     76 % 0.0 in 388.0 W/m2 CLR
11:26 4.3 °F 0.1 °F 1020.5 in Calm     74 % 0.0 in 396.0 W/m2 CLR
11:31 4.5 °F -0.1 °F 1020.5 in Calm     72 % 0.0 in 404.0 W/m2 CLR
11:36 4.7 °F 0.1 °F 1020.5 in Calm     72 % 0.0 in 413.0 W/m2 CLR
11:41 4.8 °F -0.2 °F 1020.2 in Calm     70 % 0.0 in 420.0 W/m2 CLR
11:46 4.9 °F -0.1 °F 1020.2 in Calm     70 % 0.0 in 425.0 W/m2 CLR
11:51 5.1 °F -0.2 °F 1020.2 in Calm     69 % 0.0 in 432.0 W/m2 CLR
11:56 5.1 °F -0.2 °F 1019.9 in Calm     69 % 0.0 in 439.0 W/m2 CLR
12:01 5.1 °F 0.1 °F 1019.9 in Calm     70 % 0.0 in 443.0 W/m2 CLR
12:06 5.1 °F -0.1 °F 1019.9 in Calm     69 % 0.0 in 450.0 W/m2 CLR
12:11 5.3 °F 0.3 °F 1019.9 in Calm     70 % 0.0 in 408.0 W/m2 CLR
12:16 5.5 °F 0.1 °F 1019.9 in Calm     68 % 0.0 in 461.0 W/m2 CLR
12:21 5.6 °F 0.3 °F 1019.9 in Calm     69 % 0.0 in 468.0 W/m2 CLR
12:26 5.7 °F 0.2 °F 1019.5 in Calm     68 % 0.0 in 473.0 W/m2 CLR
12:31 5.7 °F 0.4 °F 1019.5 in Calm     69 % 0.0 in 475.0 W/m2 CLR
12:36 5.8 °F 0.8 °F 1019.5 in Calm     70 % 0.0 in 462.0 W/m2 CLR
12:41 5.9 °F 0.6 °F 1019.5 in Calm     69 % 0.0 in 471.0 W/m2 CLR
12:46 6.0 °F 0.7 °F 1019.5 in Calm     69 % 0.0 in 482.0 W/m2 CLR
12:51 6.1 °F 0.8 °F 1019.2 in Calm     69 % 0.0 in 468.0 W/m2 CLR
12:56 6.2 °F 0.9 °F 1019.2 in Calm     69 % 0.0 in 473.0 W/m2 CLR
13:01 6.2 °F 0.9 °F 1019.2 in Calm     69 % 0.0 in 489.0 W/m2 CLR
13:06 6.3 °F 1.1 °F 1018.8 in ENE 3.7 mph 3.7 mph 69 % 0.0 in 489.0 W/m2 CLR
13:11 6.3 °F 1.3 °F 1018.8 in NE 1.9 mph 1.9 mph 70 % 0.0 in 496.0 W/m2 CLR
13:16 6.4 °F 1.2 °F 1018.5 in Calm     69 % 0.0 in 496.0 W/m2 CLR
13:17 6.4 °F 1.2 °F 1018.5 in NNE 5.6 mph 5.6 mph 69 % 0.0 in 494.0 W/m2 CLR
13:22 6.6 °F 1.4 °F 1018.5 in Calm     70 % 0.0 in 403.0 W/m2 CLR
13:27 6.6 °F 1.7 °F 1018.5 in Calm     71 % 0.0 in 490.0 W/m2 CLR
13:37 6.9 °F 2.2 °F 1018.5 in NE 1.9 mph   72 % 0.0 in 469.0 W/m2 CLR
13:42 7.2 °F 2.3 °F 1018.2 in Calm     71 % 0.0 in 446.0 W/m2 CLR
13:47 7.3 °F 2.4 °F 1018.2 in Calm     71 % 0.0 in 455.0 W/m2 CLR
13:53 7.3 °F 2.6 °F 1017.8 in Calm     72 % 0.0 in 468.0 W/m2 CLR
13:58 7.4 °F 2.4 °F 1017.8 in NE 5.6 mph 5.6 mph 71 % 0.0 in 459.0 W/m2 CLR
14:03 7.6 °F 2.7 °F 1017.8 in NE 1.9 mph 1.9 mph 71 % 0.0 in 450.0 W/m2 CLR
14:08 7.8 °F 3.1 °F 1017.8 in Calm     72 % 0.0 in 469.0 W/m2 CLR
14:13 8.1 °F 3.2 °F 1017.8 in Calm     71 % 0.0 in 482.0 W/m2 CLR
14:18 8.4 °F 3.4 °F 1017.5 in Calm     71 % 0.0 in 445.0 W/m2 CLR
14:23 8.7 °F 3.8 °F 1017.5 in Calm   0.5 mph 71 % 0.0 in 454.0 W/m2 CLR
14:28 8.9 °F 3.5 °F 1017.5 in Calm   0.3 mph 69 % 0.0 in 443.0 W/m2 CLR
14:33 9.1 °F 3.5 °F 1017.5 in East 3.7 mph   68 % 0.0 in 441.0 W/m2 CLR
14:38 9.3 °F 3.9 °F 1017.5 in Calm   0.5 mph 69 % 0.0 in 415.0 W/m2 CLR
14:43 9.3 °F 3.7 °F 1017.2 in East 9.7 mph 9.7 mph 68 % 0.0 in 422.0 W/m2 CLR
14:48 9.2 °F 3.8 °F 1017.2 in East 4.8 mph 4.8 mph 69 % 0.0 in 371.0 W/m2 CLR
14:53 9.3 °F 3.9 °F 1017.2 in Calm     69 % 0.0 in 387.0 W/m2 CLR
14:58 9.6 °F 4.2 °F 1017.2 in East 3.7 mph   69 % 0.0 in 378.0 W/m2 CLR
15:03 9.7 °F 3.6 °F 1017.2 in East 5.6 mph 5.6 mph 66 % 0.0 in 399.0 W/m2 CLR
15:08 9.6 °F 3.8 °F 1017.2 in East 6.4 mph 6.4 mph 67 % 0.0 in 380.0 W/m2 CLR
15:13 9.6 °F 3.6 °F 1016.8 in East 3.7 mph 3.7 mph 66 % 0.0 in 378.0 W/m2 CLR
15:18 9.7 °F 3.9 °F 1016.8 in East 5.6 mph 5.6 mph 67 % 0.0 in 371.0 W/m2 CLR
15:23 9.6 °F 3.3 °F 1016.8 in East 9.3 mph 9.3 mph 65 % 0.0 in 345.0 W/m2 CLR
15:28 9.6 °F 3.6 °F 1016.8 in East 9.7 mph 9.7 mph 66 % 0.0 in 302.0 W/m2 CLR
15:33 9.6 °F 3.5 °F 1016.5 in East 3.7 mph 3.7 mph 66 % 0.0 in 258.0 W/m2 CLR
15:38 9.6 °F 3.5 °F 1016.8 in East 7.4 mph 7.4 mph 66 % 0.0 in 253.0 W/m2 CLR
15:43 9.5 °F 3.4 °F 1016.8 in East 4.8 mph 4.8 mph 66 % 0.0 in 262.0 W/m2 CLR
15:48 9.6 °F 3.7 °F 1016.8 in Calm     67 % 0.0 in 227.0 W/m2 CLR
15:53 9.7 °F 3.9 °F 1016.8 in ENE 3.7 mph 3.7 mph 67 % 0.0 in 204.0 W/m2 CLR
15:58 9.8 °F 3.7 °F 1016.8 in Calm     66 % 0.0 in 214.0 W/m2 CLR
16:03 9.8 °F 4.0 °F 1016.5 in East 8.0 mph 8.0 mph 67 % 0.0 in 230.0 W/m2 CLR
16:04 9.8 °F 3.8 °F 1016.5 in East 7.4 mph 7.4 mph 66 % 0.0 in 244.0 W/m2 CLR
16:09 9.8 °F 3.5 °F 1016.8 in East 5.6 mph 5.6 mph 65 % 0.0 in 264.0 W/m2 CLR
16:14 9.9 °F 3.4 °F 1016.8 in East 3.7 mph 3.7 mph 64 % 0.0 in 251.0 W/m2 CLR
16:19 9.9 °F 3.6 °F 1016.8 in Calm     65 % 0.0 in 241.0 W/m2 CLR
16:20 9.9 °F 3.6 °F 1016.8 in East 6.4 mph 6.4 mph 65 % 0.0 in 244.0 W/m2 CLR
16:25 9.9 °F 3.4 °F 1016.8 in ESE 5.6 mph 5.6 mph 64 % 0.0 in 220.0 W/m2 CLR
16:30 9.8 °F 3.1 °F 1016.8 in ESE 7.4 mph 7.4 mph 63 % 0.0 in 206.0 W/m2 CLR
16:35 9.6 °F 2.9 °F 1016.8 in Calm     63 % 0.0 in 192.0 W/m2 CLR
16:40 9.7 °F 2.9 °F 1016.8 in East 3.7 mph 3.7 mph 63 % 0.0 in 216.0 W/m2 CLR
16:45 9.7 °F 3.4 °F 1016.8 in Calm     65 % 0.0 in 207.0 W/m2 CLR
16:50 9.8 °F 3.3 °F 1016.8 in ESE 1.9 mph 1.9 mph 64 % 0.0 in 158.0 W/m2 CLR
16:55 9.7 °F 3.4 °F 1016.8 in ESE 7.4 mph 7.4 mph 65 % 0.0 in 86.0 W/m2 CLR
17:00 9.4 °F 3.4 °F 1016.8 in ESE 5.6 mph 5.6 mph 66 % 0.0 in 72.0 W/m2 CLR
17:05 9.3 °F 3.3 °F 1017.2 in ESE 3.7 mph 3.7 mph 66 % 0.0 in 65.0 W/m2 FEW
17:10 9.3 °F 3.4 °F 1017.2 in ESE 3.7 mph   67 % 0.0 in 54.0 W/m2 SCT
17:15 9.1 °F 3.3 °F 1017.2 in East 5.6 mph 5.6 mph 67 % 0.0 in 46.0 W/m2 SCT
17:20 8.9 °F 3.2 °F 1017.2 in ESE 7.4 mph 7.4 mph 67 % 0.0 in 40.0 W/m2 BKN
17:25 8.8 °F 3.1 °F 1017.2 in ESE 5.6 mph 5.6 mph 67 % 0.0 in 35.0 W/m2 BKN
17:30 8.7 °F 3.2 °F 1017.2 in East 3.7 mph 3.7 mph 68 % 0.0 in 32.0 W/m2 BKN
17:35 8.6 °F 3.0 °F 1017.5 in East 1.9 mph 1.9 mph 68 % 0.0 in 26.0 W/m2 BKN
17:40 8.6 °F 3.0 °F 1017.5 in ESE 7.4 mph 7.4 mph 68 % 0.0 in 23.0 W/m2 BKN
17:45 8.6 °F 2.6 °F 1017.5 in SE 6.4 mph 6.4 mph 66 % 0.0 in 18.0 W/m2 BKN
17:50 8.6 °F 2.6 °F 1017.5 in SE 5.6 mph 5.6 mph 66 % 0.0 in 12.0 W/m2 BKN
17:55 8.5 °F 2.5 °F 1017.5 in SE 3.7 mph 3.7 mph 66 % 0.0 in 7.0 W/m2 BKN
18:00 8.3 °F 2.6 °F 1017.5 in Calm     67 % 0.0 in 5.0 W/m2 OVC
18:05 8.2 °F 2.4 °F 1017.5 in SE 5.6 mph 5.6 mph 67 % 0.0 in 0.0 W/m2 OVC
18:10 8.1 °F 2.5 °F 1017.5 in Calm     68 % 0.0 in 0.0 W/m2 OVC
18:15 7.9 °F 2.4 °F 1017.5 in SSE 5.6 mph 5.6 mph 68 % 0.0 in 0.0 W/m2 OVC
18:20 7.9 °F 2.3 °F 1017.5 in SE 7.4 mph 7.4 mph 68 % 0.0 in 0.0 W/m2 CLR
18:25 7.8 °F 2.5 °F 1017.5 in SE 7.4 mph 7.4 mph 69 % 0.0 in 0.0 W/m2 CLR
18:30 7.8 °F 2.4 °F 1017.5 in SE 7.4 mph 7.4 mph 69 % 0.0 in 0.0 W/m2 CLR
18:35 7.8 °F 2.5 °F 1017.5 in SSE 7.4 mph 7.4 mph 69 % 0.0 in 0.0 W/m2 CLR
18:40 7.8 °F 2.7 °F 1017.5 in SSE 3.7 mph 3.7 mph 70 % 0.0 in 0.0 W/m2 CLR
18:45 7.8 °F 2.7 °F 1017.5 in SSE 5.6 mph 5.6 mph 70 % 0.0 in 0.0 W/m2 CLR
18:50 7.7 °F 2.7 °F 1017.5 in Calm     71 % 0.0 in 0.0 W/m2 CLR
18:55 7.7 °F 2.7 °F 1017.8 in Calm     71 % 0.0 in 0.0 W/m2 CLR
19:00 7.6 °F 2.9 °F 1017.8 in Calm     72 % 0.0 in 0.0 W/m2 CLR
19:05 7.6 °F 2.9 °F 1017.8 in Calm   0.6 mph 72 % 0.0 in 0.0 W/m2 CLR
19:10 7.6 °F 2.8 °F 1017.8 in South 3.7 mph   72 % 0.0 in 0.0 W/m2 CLR
19:15 7.6 °F 2.8 °F 1017.8 in Calm     72 % 0.0 in 0.0 W/m2 CLR
19:20 7.6 °F 2.8 °F 1017.8 in Calm     72 % 0.0 in 0.0 W/m2 CLR
19:25 7.6 °F 2.8 °F 1017.8 in SSE 1.6 mph 1.6 mph 72 % 0.0 in 0.0 W/m2 CLR
19:30 7.6 °F 2.7 °F 1017.8 in Calm     71 % 0.0 in 0.0 W/m2 CLR
19:36 7.6 °F 2.9 °F 1017.8 in Calm     72 % 0.0 in 0.0 W/m2 CLR
19:41 7.6 °F 2.7 °F 1017.8 in Calm     71 % 0.0 in 0.0 W/m2 CLR
19:46 7.6 °F 2.7 °F 1017.8 in Calm     71 % 0.0 in 0.0 W/m2 CLR
19:51 7.6 °F 2.7 °F 1017.8 in SSE 7.4 mph 7.4 mph 71 % 0.0 in 0.0 W/m2 CLR
19:56 7.7 °F 2.6 °F 1017.8 in SE 5.6 mph 5.6 mph 70 % 0.0 in 0.0 W/m2 CLR
20:01 7.7 °F 2.6 °F 1017.8 in SE 3.7 mph   70 % 0.0 in 0.0 W/m2 CLR
20:06 7.6 °F 2.4 °F 1017.8 in Calm     70 % 0.0 in 0.0 W/m2 CLR
20:11 7.4 °F 2.4 °F 1017.8 in Calm     71 % 0.0 in 0.0 W/m2 CLR
20:16 7.3 °F 2.4 °F 1017.8 in Calm     71 % 0.0 in 0.0 W/m2 CLR
20:21 7.3 °F 2.4 °F 1017.8 in Calm     71 % 0.0 in 0.0 W/m2 CLR
20:26 7.3 °F 2.6 °F 1017.8 in Calm     72 % 0.0 in 0.0 W/m2 CLR
20:31 7.4 °F 2.4 °F 1017.8 in Calm     71 % 0.0 in 0.0 W/m2 CLR
20:36 7.4 °F 2.4 °F 1017.8 in Calm     71 % 0.0 in 0.0 W/m2 CLR
20:41 7.3 °F 2.4 °F 1017.8 in Calm     71 % 0.0 in 0.0 W/m2 CLR
20:46 7.1 °F 2.2 °F 1017.8 in Calm     71 % 0.0 in 0.0 W/m2 CLR
20:51 7.1 °F 2.2 °F 1017.8 in Calm     71 % 0.0 in 0.0 W/m2 CLR
20:56 7.1 °F 2.2 °F 1017.5 in Calm     71 % 0.0 in 0.0 W/m2 CLR
21:01 7.1 °F 2.2 °F 1017.8 in Calm     71 % 0.0 in 0.0 W/m2 CLR
21:06 7.1 °F 2.4 °F 1017.8 in Calm     72 % 0.0 in 0.0 W/m2 CLR
21:11 7.1 °F 2.4 °F 1017.8 in Calm     72 % 0.0 in 0.0 W/m2 CLR
21:21 6.8 °F 2.5 °F 1017.8 in Calm     74 % 0.0 in 0.0 W/m2 CLR
21:26 6.8 °F 2.3 °F 1017.5 in Calm     73 % 0.0 in 0.0 W/m2 CLR
21:31 6.9 °F 2.4 °F 1017.5 in Calm     73 % 0.0 in 0.0 W/m2 CLR
21:36 6.9 °F 2.6 °F 1017.5 in Calm     74 % 0.0 in 0.0 W/m2 CLR
21:41 6.8 °F 2.5 °F 1017.5 in Calm     74 % 0.0 in 0.0 W/m2 CLR
21:46 6.8 °F 2.7 °F 1017.5 in Calm     75 % 0.0 in 0.0 W/m2 CLR
21:51 6.7 °F 2.6 °F 1017.5 in Calm     75 % 0.0 in 0.0 W/m2 CLR
21:56 6.6 °F 2.7 °F 1017.8 in Calm     76 % 0.0 in 0.0 W/m2 CLR
22:01 6.5 °F 2.6 °F 1017.5 in Calm     76 % 0.0 in 0.0 W/m2 CLR
22:06 6.4 °F 2.7 °F 1017.5 in Calm     77 % 0.0 in 0.0 W/m2 CLR
22:11 6.3 °F 2.8 °F 1017.5 in Calm     78 % 0.0 in 0.0 W/m2 CLR
22:16 6.3 °F 2.7 °F 1017.5 in Calm     78 % 0.0 in 0.0 W/m2 CLR
22:21 6.3 °F 2.9 °F 1017.5 in Calm     79 % 0.0 in 0.0 W/m2 CLR
22:31 6.3 °F 3.1 °F 1017.2 in Calm     80 % 0.0 in 0.0 W/m2 CLR
22:36 6.4 °F 3.2 °F 1017.2 in Calm     80 % 0.0 in 0.0 W/m2 CLR
22:41 6.4 °F 3.2 °F 1017.5 in Calm     80 % 0.0 in 0.0 W/m2 CLR
22:46 6.4 °F 3.0 °F 1017.2 in Calm     79 % 0.0 in 0.0 W/m2 CLR
22:51 6.4 °F 3.2 °F 1017.5 in Calm     80 % 0.0 in 0.0 W/m2 CLR
22:56 6.3 °F 3.1 °F 1017.5 in Calm     80 % 0.0 in 0.0 W/m2 CLR
23:01 6.3 °F 3.3 °F 1017.2 in Calm     81 % 0.0 in 0.0 W/m2 CLR
23:06 6.4 °F 3.4 °F 1017.2 in Calm     81 % 0.0 in 0.0 W/m2 CLR
23:11 6.4 °F 3.2 °F 1017.2 in Calm     80 % 0.0 in 0.0 W/m2 CLR
23:16 6.3 °F 3.3 °F 1017.2 in ESE 5.6 mph 5.6 mph 81 % 0.0 in 0.0 W/m2 CLR
23:22 6.5 °F 3.5 °F 1017.2 in Calm     81 % 0.0 in 0.0 W/m2 CLR
23:32 6.6 °F 3.3 °F 1017.2 in Calm     80 % 0.0 in 0.0 W/m2 CLR
23:37 6.5 °F 3.3 °F 1017.2 in Calm     80 % 0.0 in 0.0 W/m2 CLR
23:42 6.5 °F 3.5 °F 1017.2 in Calm     81 % 0.0 in 0.0 W/m2 CLR
23:47 6.4 °F 3.4 °F 1017.2 in Calm     81 % 0.0 in 0.0 W/m2 CLR
23:52 6.4 °F 3.4 °F 1017.2 in Calm     81 % 0.0 in 0.0 W/m2 CLR
23:57 6.5 °F 3.5 °F 1017.2 in Calm     81 % 0.0 in 0.0 W/m2 CLR
Lo Temps de Massalio
Compliments of Weather Underground - 1.25 mb